Time;durP1;ratioP1;P1;durP2;ratioP2;P2;SDS_P1;SDS_P2;PMS_P1;PMS_P2;Temp;Humidity;BMP_temperature;BMP_pressure;BME280_temperature;BME280_humidity;BME280_pressure;Samples;Min_cycle;Max_cycle;Signal;HPM_P1;HPM_P2
2022/11/01 00:02:24;;;;;;;;;;;;;;;13.39;60.99;95990.63;5000264;28;19928;-82
2022/11/01 00:04:49;;;;;;;;;;;;;;;13.37;61.00;95998.09;4999040;28;19924;-82
2022/11/01 00:07:15;;;;;;;;;;;;;;;13.34;61.32;95984.53;5006774;28;20430;-82
2022/11/01 00:09:40;;;;;;;;;;;;;;;13.32;61.15;95982.13;5029489;28;20408;-82
2022/11/01 00:12:05;;;;;;;;;;;;;;;13.32;61.31;95986.66;5026542;28;20379;-82
2022/11/01 00:14:31;;;;;;;;;;;;;;;13.32;61.36;95984.78;5008074;28;20265;-82
2022/11/01 00:16:56;;;;;;;;;;;;;;;13.32;61.21;95989.31;5002086;28;19917;-82
2022/11/01 00:19:21;;;;;;;;;;;;;;;13.22;61.45;95987.47;5009556;28;20253;-81
2022/11/01 00:21:47;;;;;;;;;;;;;;;13.19;61.46;95995.22;5014260;28;19948;-81
2022/11/01 00:24:12;;;;;;;;;;;;;;;13.17;61.44;95982.16;5032699;28;20003;-81
2022/11/01 00:26:37;;;;;;;;;;;;;;;13.14;61.67;95983.50;5011026;28;20023;-82
2022/11/01 00:29:02;;;;;;;;;;;;;;;13.16;61.53;95990.41;5013998;28;19921;-82
2022/11/01 00:31:28;;;;;;;;;;;;;;;13.09;61.77;95991.47;5014762;28;19927;-82
2022/11/01 00:33:53;;;;;;;;;;;;;;;13.07;61.79;95990.13;5014361;28;19923;-82
2022/11/01 00:36:19;;;;;;;;;;;;;;;13.05;61.82;95990.41;5013993;28;20023;-83
2022/11/01 00:38:48;;;;;;;;;;;;;;;13.02;61.94;95988.28;5014587;28;19917;-83
2022/11/01 00:41:14;;;;;;;;;;;;;;;13.03;62.14;95995.22;5012809;28;19931;-82
2022/11/01 00:43:39;;;;;;;;;;;;;;;13.05;62.10;95987.72;5009628;28;19918;-81
2022/11/01 00:46:05;;;;;;;;;;;;;;;13.06;62.17;95989.34;4995095;28;19928;-82
2022/11/01 00:48:31;;;;;;;;;;;;;;;13.04;62.15;95988.81;5009141;28;20356;-82
2022/11/01 00:50:57;;;;;;;;;;;;;;;13.00;62.27;95990.41;4996849;28;19924;-82
2022/11/01 00:53:22;;;;;;;;;;;;;;;13.00;62.53;95994.94;5007391;28;19917;-82
2022/11/01 00:55:47;;;;;;;;;;;;;;;13.00;62.33;95989.63;5011124;28;20285;-81
2022/11/01 00:58:13;;;;;;;;;;;;;;;12.97;62.25;95988.28;5007045;28;19949;-82
2022/11/01 01:00:38;;;;;;;;;;;;;;;12.88;62.27;95989.91;4995827;28;19917;-82
2022/11/01 01:03:05;;;;;;;;;;;;;;;12.89;62.20;95994.13;5000773;28;19917;-80
2022/11/01 01:05:31;;;;;;;;;;;;;;;12.85;62.24;95992.28;5010021;28;19968;-85
2022/11/01 01:07:56;;;;;;;;;;;;;;;12.70;62.78;95993.91;5032101;28;19932;-85
2022/11/01 01:10:22;;;;;;;;;;;;;;;12.74;62.89;95988.81;5015269;28;20322;-85
2022/11/01 01:12:47;;;;;;;;;;;;;;;12.72;62.81;95989.13;5028881;28;19920;-85
2022/11/01 01:15:12;;;;;;;;;;;;;;;12.69;63.25;95992.28;5000751;28;20408;-85
2022/11/01 01:17:38;;;;;;;;;;;;;;;12.70;63.08;95990.44;5010707;28;19921;-85
2022/11/01 01:20:03;;;;;;;;;;;;;;;12.69;63.32;95992.28;5010675;28;19921;-85
2022/11/01 01:22:29;;;;;;;;;;;;;;;12.71;63.40;95990.19;5011632;28;20459;-85
2022/11/01 01:24:54;;;;;;;;;;;;;;;12.71;63.05;95992.03;5031740;28;20386;-85
2022/11/01 01:27:19;;;;;;;;;;;;;;;12.66;63.24;95984.84;5013376;28;19921;-85
2022/11/01 01:29:45;;;;;;;;;;;;;;;12.69;63.30;95991.50;5031626;28;20070;-85
2022/11/01 01:32:14;;;;;;;;;;;;;;;12.66;63.24;95986.72;5017925;28;19913;-86
2022/11/01 01:34:39;;;;;;;;;;;;;;;12.62;63.10;95988.31;5037241;28;19939;-85
2022/11/01 01:37:05;;;;;;;;;;;;;;;12.62;63.22;95991.78;5014092;28;19918;-85
2022/11/01 01:39:31;;;;;;;;;;;;;;;12.62;63.28;95991.78;5022668;28;19913;-85
2022/11/01 01:41:56;;;;;;;;;;;;;;;12.60;63.36;95987.75;5014656;28;20421;-85
2022/11/01 01:44:40;;;;;;;;;;;;;;;12.56;63.41;95992.84;5022926;28;20004;-85
2022/11/01 01:47:06;;;;;;;;;;;;;;;12.52;63.30;95999.75;5021448;28;19921;-85
2022/11/01 01:49:31;;;;;;;;;;;;;;;12.50;63.34;96001.09;5020595;28;19999;-84
2022/11/01 01:51:57;;;;;;;;;;;;;;;12.48;63.22;96003.19;5037180;28;19924;-85
2022/11/01 01:54:22;;;;;;;;;;;;;;;12.43;63.39;95998.69;5039257;28;20322;-85
2022/11/01 01:56:48;;;;;;;;;;;;;;;12.34;63.53;96006.38;5007128;28;19917;-85
2022/11/01 01:59:13;;;;;;;;;;;;;;;12.32;63.45;96002.38;5023298;28;19925;-85
2022/11/01 02:01:39;;;;;;;;;;;;;;;11.69;63.68;95913.97;5040326;28;20003;-85
2022/11/01 02:04:08;;;;;;;;;;;;;;;12.26;63.67;96000.78;5017410;28;20387;-85
2022/11/01 02:06:34;;;;;;;;;;;;;;;12.25;63.77;96001.84;5029870;28;19951;-85
2022/11/01 02:09:02;;;;;;;;;;;;;;;12.21;63.78;96004.22;5039182;28;19928;-85
2022/11/01 02:11:27;;;;;;;;;;;;;;;12.21;63.84;96000.75;5033569;28;19967;-84
2022/11/01 02:13:52;;;;;;;;;;;;;;;12.11;63.98;96012.19;5010640;28;19925;-84
2022/11/01 02:16:35;;;;;;;;;;;;;;;11.82;65.25;96001.22;5016423;28;19967;-85
2022/11/01 02:19:16;;;;;;;;;;;;;;;11.98;65.09;96005.50;5024584;28;19917;-84
2022/11/01 02:22:01;;;;;;;;;;;;;;;12.03;64.51;96003.94;5016926;28;20345;-85
2022/11/01 02:24:26;;;;;;;;;;;;;;;11.91;64.96;96009.47;5017899;28;19927;-84
2022/11/01 02:27:10;;;;;;;;;;;;;;;11.87;64.85;96009.19;5033878;28;19932;-84
2022/11/01 02:29:38;;;;;;;;;;;;;;;11.94;64.68;96019.59;4987077;28;19922;-84
2022/11/01 02:32:16;;;;;;;;;;;;;;;11.93;64.57;96017.97;5008264;28;20346;-85
2022/11/01 02:34:47;;;;;;;;;;;;;;;11.94;64.22;96012.41;5017594;28;19917;-86
2022/11/01 02:37:17;;;;;;;;;;;;;;;11.94;64.58;96006.28;5013717;28;19928;-85
2022/11/01 02:39:46;;;;;;;;;;;;;;;11.86;64.51;96001.47;4992386;28;19925;-84
2022/11/01 02:42:14;;;;;;;;;;;;;;;11.96;64.38;96014.81;4992265;28;19919;-84
2022/11/01 02:44:42;;;;;;;;;;;;;;;11.94;64.28;96022.25;4994227;28;20304;-85
2022/11/01 02:47:09;;;;;;;;;;;;;;;11.93;64.34;96026.75;4981959;28;20319;-84
2022/11/01 02:49:37;;;;;;;;;;;;;;;11.87;64.54;96019.84;4991011;28;19929;-84
2022/11/01 02:52:04;;;;;;;;;;;;;;;11.89;64.45;96035.53;4996971;28;20404;-85
2022/11/01 02:54:39;;;;;;;;;;;;;;;11.89;64.37;96040.84;4983236;28;20376;-82
2022/11/01 02:57:14;;;;;;;;;;;;;;;11.81;64.68;96031.50;4984018;28;19937;-82
2022/11/01 02:59:47;;;;;;;;;;;;;;;11.84;64.70;96033.63;4992557;28;19925;-80
2022/11/01 03:02:38;;;;;;;;;;;;;;;11.89;64.58;96035.53;4988834;28;20024;-80
2022/11/01 03:05:09;;;;;;;;;;;;;;;11.88;64.29;96034.72;4986217;28;19925;-80
2022/11/01 03:07:34;;;;;;;;;;;;;;;11.87;64.60;96038.44;4998798;28;19926;-80
2022/11/01 03:10:00;;;;;;;;;;;;;;;11.88;64.26;96040.03;4973855;28;20340;-80
2022/11/01 03:12:27;;;;;;;;;;;;;;;11.86;64.37;96038.69;4986203;28;20005;-81
2022/11/01 03:15:19;;;;;;;;;;;;;;;11.87;64.17;96040.28;4981611;28;19918;-81
2022/11/01 03:18:03;;;;;;;;;;;;;;;11.84;64.44;96041.59;4981699;28;19929;-80
2022/11/01 03:20:47;;;;;;;;;;;;;;;11.79;64.32;96048.75;4986105;28;20316;-81
2022/11/01 03:23:15;;;;;;;;;;;;;;;11.79;64.40;96048.75;4969550;28;19919;-80
2022/11/01 03:25:43;;;;;;;;;;;;;;;11.78;64.17;96045.31;4967349;28;19963;-80
2022/11/01 03:28:17;;;;;;;;;;;;;;;11.75;63.99;96051.13;4990591;28;19932;-81
2022/11/01 03:31:05;;;;;;;;;;;;;;;11.72;64.42;96045.50;5021730;28;19917;-81
2022/11/01 03:33:32;;;;;;;;;;;;;;;11.69;64.41;96043.38;5015958;28;19953;-80
2022/11/01 03:36:02;;;;;;;;;;;;;;;11.69;64.51;96046.81;5020251;28;20265;-80
2022/11/01 03:38:31;;;;;;;;;;;;;;;11.70;64.73;96044.97;5021806;28;19928;-79
2022/11/01 03:41:00;;;;;;;;;;;;;;;11.70;65.07;96044.97;5023246;28;19921;-81
2022/11/01 03:43:27;;;;;;;;;;;;;;;11.72;64.63;96041.00;5035205;28;19917;-80
2022/11/01 03:45:53;;;;;;;;;;;;;;;11.70;64.64;96042.31;5022756;28;19918;-80
2022/11/01 03:48:18;;;;;;;;;;;;;;;11.67;64.54;96040.19;5007294;28;19921;-81
2022/11/01 03:50:48;;;;;;;;;;;;;;;11.64;64.73;96044.16;5019380;28;20379;-81
2022/11/01 03:53:13;;;;;;;;;;;;;;;11.64;64.68;96041.50;5019011;28;20142;-80
2022/11/01 03:55:39;;;;;;;;;;;;;;;11.62;64.59;96048.91;5022075;28;19918;-81
2022/11/01 03:58:04;;;;;;;;;;;;;;;11.62;65.03;96048.91;5020668;28;19927;-82
2022/11/01 04:00:31;;;;;;;;;;;;;;;11.64;64.97;96044.16;5021210;28;19963;-83
2022/11/01 04:02:57;;;;;;;;;;;;;;;11.70;64.40;96042.31;5034691;28;20020;-80
2022/11/01 04:05:23;;;;;;;;;;;;;;;11.67;64.33;96045.50;5017301;28;19992;-80
2022/11/01 04:07:50;;;;;;;;;;;;;;;11.71;64.55;96046.56;5007722;28;19933;-80
2022/11/01 04:10:15;;;;;;;;;;;;;;;11.59;64.74;96042.25;5027260;28;19924;-81
2022/11/01 04:12:43;;;;;;;;;;;;;;;11.64;64.60;96046.81;5042135;28;19917;-81
2022/11/01 04:20:45;;;;;;;;;;;;;;;11.56;64.90;96047.28;5009570;28;19924;-80
2022/11/01 04:23:11;;;;;;;;;;;;;;;11.51;64.83;96044.63;5034163;28;20332;-80
2022/11/01 04:25:36;;;;;;;;;;;;;;;11.48;64.77;96042.47;5003186;28;20383;-81
2022/11/01 04:28:01;;;;;;;;;;;;;;;11.47;64.54;96041.66;5007766;28;19956;-81
2022/11/01 04:30:28;;;;;;;;;;;;;;;11.41;64.66;96044.56;5029106;28;20299;-80
2022/11/01 04:32:53;;;;;;;;;;;;;;;11.37;64.90;96043.47;5031259;28;19927;-80
2022/11/01 04:35:19;;;;;;;;;;;;;;;11.35;65.23;96045.59;5020951;28;20016;-82
2022/11/01 04:37:44;;;;;;;;;;;;;;;11.30;65.03;96048.19;5014239;28;20060;-79
2022/11/01 04:40:10;;;;;;;;;;;;;;;11.29;65.17;96047.41;5025122;28;19979;-80
2022/11/01 04:42:36;;;;;;;;;;;;;;;11.28;65.28;96050.34;5017296;28;19917;-81
2022/11/01 04:45:02;;;;;;;;;;;;;;;11.21;64.88;96043.38;5021488;28;20012;-81
2022/11/01 04:47:27;;;;;;;;;;;;;;;11.24;65.03;96047.38;5032771;28;20000;-81
2022/11/01 04:49:53;;;;;;;;;;;;;;;11.16;65.38;96053.97;5013527;28;19932;-81
2022/11/01 04:52:18;;;;;;;;;;;;;;;11.15;64.92;96041.75;5026688;28;19921;-81
2022/11/01 04:54:43;;;;;;;;;;;;;;;11.10;65.75;96052.34;5011328;28;19921;-79
2022/11/01 04:57:21;;;;;;;;;;;;;;;11.02;65.16;96052.81;5005858;28;20004;-80
2022/11/01 04:59:54;;;;;;;;;;;;;;;11.04;65.33;96049.91;5020869;28;19948;-80
2022/11/01 05:02:20;;;;;;;;;;;;;;;11.06;65.60;96053.13;5023134;28;19971;-80
2022/11/01 05:04:46;;;;;;;;;;;;;;;11.08;65.71;96056.28;5018901;28;19917;-82
2022/11/01 05:07:12;;;;;;;;;;;;;;;11.06;65.61;96058.41;5012766;28;19948;-80
2022/11/01 05:09:37;;;;;;;;;;;;;;;11.09;65.18;96060.53;5020016;28;19928;-80
2022/11/01 05:12:02;;;;;;;;;;;;;;;11.11;65.23;96063.75;5040222;28;19924;-80
2022/11/01 05:14:28;;;;;;;;;;;;;;;11.03;65.68;96062.38;5009140;28;19924;-80
2022/11/01 05:16:56;;;;;;;;;;;;;;;11.07;65.32;96068.75;5023590;28;19972;-80
2022/11/01 05:19:22;;;;;;;;;;;;;;;11.08;65.35;96074.88;5003648;28;19980;-80
2022/11/01 05:21:47;;;;;;;;;;;;;;;11.07;65.30;96067.97;5009557;28;20236;-81
2022/11/01 05:24:13;;;;;;;;;;;;;;;11.08;65.69;96074.88;5022081;28;20176;-81
2022/11/01 05:26:38;;;;;;;;;;;;;;;11.12;65.17;96079.44;5022258;28;19925;-81
2022/11/01 05:29:04;;;;;;;;;;;;;;;11.08;65.84;96080.19;5016913;28;20024;-80
2022/11/01 05:31:29;;;;;;;;;;;;;;;11.09;65.73;96077.28;5014900;28;19917;-81
2022/11/01 05:33:54;;;;;;;;;;;;;;;11.14;65.82;96077.31;5040035;28;19923;-81
2022/11/01 05:36:19;;;;;;;;;;;;;;;11.16;65.67;96085.03;5005685;28;19924;-81
2022/11/01 05:38:45;;;;;;;;;;;;;;;11.05;66.03;96089.47;5020164;28;19917;-80
2022/11/01 05:41:10;;;;;;;;;;;;;;;11.05;66.23;96088.66;5018729;28;19925;-80
2022/11/01 05:43:35;;;;;;;;;;;;;;;11.07;66.14;96083.88;5009873;28;19967;-80
2022/11/01 05:46:07;;;;;;;;;;;;;;;11.03;66.11;96093.41;5022311;28;19917;-80
2022/11/01 05:48:33;;;;;;;;;;;;;;;11.14;66.55;96095.88;5024783;28;19917;-81
2022/11/01 05:50:58;;;;;;;;;;;;;;;11.17;66.10;96095.38;5012293;28;20383;-81
2022/11/01 05:53:23;;;;;;;;;;;;;;;11.25;65.69;96101.28;5014897;28;19933;-80
2022/11/01 05:55:49;;;;;;;;;;;;;;;11.27;65.74;96102.63;5012559;28;19917;-80
2022/11/01 05:58:14;;;;;;;;;;;;;;;11.33;66.11;96100.81;5019939;28;19940;-80
2022/11/01 06:00:39;;;;;;;;;;;;;;;11.38;65.68;96109.59;5020923;28;20380;-81
2022/11/01 06:03:04;;;;;;;;;;;;;;;11.44;65.80;96105.16;5022714;28;19964;-81
2022/11/01 06:05:30;;;;;;;;;;;;;;;11.49;65.77;96105.97;5010771;28;19917;-81
2022/11/01 06:07:56;;;;;;;;;;;;;;;11.56;65.03;96108.41;5018927;28;19944;-81
2022/11/01 06:10:21;;;;;;;;;;;;;;;11.60;65.11;96107.63;5035768;28;20445;-80
2022/11/01 06:12:47;;;;;;;;;;;;;;;11.68;64.83;96105.53;5012016;28;19997;-80
2022/11/01 06:15:12;;;;;;;;;;;;;;;11.71;64.67;96113.00;5005510;28;19941;-80
2022/11/01 06:17:38;;;;;;;;;;;;;;;11.75;64.75;96116.78;5016062;28;20015;-81
2022/11/01 06:20:03;;;;;;;;;;;;;;;11.79;64.28;96115.19;5016130;28;19936;-81
2022/11/01 06:22:28;;;;;;;;;;;;;;;11.83;64.13;96109.09;5041453;28;19916;-81
2022/11/01 06:24:54;;;;;;;;;;;;;;;11.88;63.81;96113.66;5029395;28;19959;-81
2022/11/01 06:27:19;;;;;;;;;;;;;;;11.85;63.75;96112.31;5039991;28;19967;-81
2022/11/01 06:29:44;;;;;;;;;;;;;;;11.90;64.03;96114.97;5015218;28;19921;-81
2022/11/01 06:32:10;;;;;;;;;;;;;;;11.95;63.52;96116.88;5020749;28;19925;-82
2022/11/01 06:34:35;;;;;;;;;;;;;;;11.95;63.64;96120.34;5016475;28;20380;-81
2022/11/01 06:37:01;;;;;;;;;;;;;;;12.00;63.64;96119.56;5016182;28;19917;-82
2022/11/01 06:39:26;;;;;;;;;;;;;;;12.06;63.27;96125.69;5031757;28;19951;-82
2022/11/01 06:41:52;;;;;;;;;;;;;;;12.09;63.30;96123.31;5040653;28;19917;-82
2022/11/01 06:44:18;;;;;;;;;;;;;;;12.10;63.34;96119.59;5023217;28;19917;-81
2022/11/01 06:46:43;;;;;;;;;;;;;;;12.15;63.35;96121.47;5019070;28;19925;-82
2022/11/01 06:49:08;;;;;;;;;;;;;;;12.20;62.98;96132.16;5020473;28;19923;-83
2022/11/01 06:51:34;;;;;;;;;;;;;;;12.23;62.65;96121.78;5041394;28;19920;-81
2022/11/01 06:53:59;;;;;;;;;;;;;;;12.24;62.75;96122.56;5021189;28;19925;-82
2022/11/01 06:56:25;;;;;;;;;;;;;;;12.24;62.69;96119.91;5008628;28;19924;-80
2022/11/01 06:58:50;;;;;;;;;;;;;;;12.28;62.62;96121.78;5019605;28;19922;-82
2022/11/01 07:01:20;;;;;;;;;;;;;;;12.33;62.56;96127.13;5024079;28;19925;-81
2022/11/01 07:03:49;;;;;;;;;;;;;;;12.37;62.26;96120.22;5021509;28;20217;-82
2022/11/01 07:06:14;;;;;;;;;;;;;;;12.42;62.39;96119.47;5022351;28;19961;-82
2022/11/01 07:08:39;;;;;;;;;;;;;;;12.47;62.31;96110.69;5020935;28;20023;-81
2022/11/01 07:11:05;;;;;;;;;;;;;;;12.50;62.10;96118.94;5018336;28;19925;-80
2022/11/01 07:13:32;;;;;;;;;;;;;;;12.48;61.95;96113.09;5022355;28;19972;-82
2022/11/01 07:16:00;;;;;;;;;;;;;;;12.58;61.80;96117.63;5039067;28;20347;-81
2022/11/01 07:18:25;;;;;;;;;;;;;;;12.62;61.86;96111.50;5020288;28;19974;-82
2022/11/01 07:20:51;;;;;;;;;;;;;;;12.60;61.91;96112.84;5021154;28;19960;-81
2022/11/01 07:23:17;;;;;;;;;;;;;;;12.53;62.27;96118.41;5026068;28;19976;-81
2022/11/01 07:25:42;;;;;;;;;;;;;;;12.54;62.40;96120.00;5026757;28;20438;-86
2022/11/01 07:28:08;;;;;;;;;;;;;;;12.48;62.39;96121.06;5032168;28;19980;-86
2022/11/01 07:30:33;;;;;;;;;;;;;;;12.56;62.19;96120.56;5025629;28;19917;-82
2022/11/01 07:33:00;;;;;;;;;;;;;;;12.68;61.88;96118.44;5041506;28;19925;-81
2022/11/01 07:35:26;;;;;;;;;;;;;;;12.64;62.25;96116.59;5011710;28;19928;-82
2022/11/01 07:37:51;;;;;;;;;;;;;;;12.72;62.01;96114.22;5024304;28;19918;-81
2022/11/01 07:40:17;;;;;;;;;;;;;;;12.79;61.96;96118.47;5043024;28;19916;-80
2022/11/01 07:42:43;;;;;;;;;;;;;;;12.88;61.80;96117.69;5021653;28;19918;-82
2022/11/01 07:45:09;;;;;;;;;;;;;;;12.78;62.00;96120.31;5028900;28;20356;-85
2022/11/01 07:47:34;;;;;;;;;;;;;;;12.87;62.00;96118.75;5024296;28;20004;-81
2022/11/01 07:50:00;;;;;;;;;;;;;;;12.98;61.63;96122.19;5036129;28;19917;-83
2022/11/01 07:52:25;;;;;;;;;;;;;;;12.98;61.52;96123.00;5015062;28;19909;-81
2022/11/01 07:54:50;;;;;;;;;;;;;;;13.04;61.47;96115.84;5022239;28;19928;-80
2022/11/01 07:57:16;;;;;;;;;;;;;;;12.97;61.70;96116.06;5015855;28;19924;-80
2022/11/01 07:59:41;;;;;;;;;;;;;;;12.95;61.82;96109.44;5040475;28;19913;-81
2022/11/01 08:02:07;;;;;;;;;;;;;;;12.97;61.46;96108.09;5024228;28;19917;-81
2022/11/01 08:04:32;;;;;;;;;;;;;;;13.09;61.51;96108.66;5023392;28;19920;-80
2022/11/01 08:06:57;;;;;;;;;;;;;;;13.09;61.43;96110.50;5012441;28;19925;-83
2022/11/01 08:09:23;;;;;;;;;;;;;;;13.27;61.10;96110.00;5016893;28;19937;-83
2022/11/01 08:11:48;;;;;;;;;;;;;;;13.27;61.10;96104.69;5023521;28;19913;-83
2022/11/01 08:14:14;;;;;;;;;;;;;;;13.28;61.30;96105.47;5018111;28;19948;-81
2022/11/01 08:16:39;;;;;;;;;;;;;;;13.28;61.02;96100.94;5029593;28;19992;-83
2022/11/01 08:19:04;;;;;;;;;;;;;;;13.31;60.89;96107.59;5023668;28;19973;-83
2022/11/01 08:21:29;;;;;;;;;;;;;;;13.40;60.97;96098.00;5027968;28;19913;-84
2022/11/01 08:23:55;;;;;;;;;;;;;;;13.45;60.80;96096.13;5022876;28;19952;-82
2022/11/01 08:26:20;;;;;;;;;;;;;;;13.52;60.58;96093.19;5031960;28;20201;-84
2022/11/01 08:28:45;;;;;;;;;;;;;;;13.55;60.67;96094.50;5027581;28;19980;-83
2022/11/01 08:31:11;;;;;;;;;;;;;;;13.66;60.14;96091.53;5016812;28;20432;-83
2022/11/01 08:33:36;;;;;;;;;;;;;;;13.63;60.49;96086.78;5019162;28;20303;-82
2022/11/01 08:36:02;;;;;;;;;;;;;;;13.72;60.04;96089.69;5024028;28;19952;-86
2022/11/01 08:38:27;;;;;;;;;;;;;;;13.78;59.69;96078.72;5025826;28;19940;-82
2022/11/01 08:40:53;;;;;;;;;;;;;;;13.83;59.69;96077.91;5020201;28;19917;-83
2022/11/01 08:43:18;;;;;;;;;;;;;;;13.85;59.44;96079.25;5023865;28;19921;-82
2022/11/01 08:45:44;;;;;;;;;;;;;;;13.98;59.67;96079.72;5032050;28;19924;-81
2022/11/01 08:48:10;;;;;;;;;;;;;;;14.11;59.13;96076.50;5013397;28;19928;-82
2022/11/01 08:50:35;;;;;;;;;;;;;;;14.15;59.17;96075.66;5006988;28;19913;-81
2022/11/01 08:53:11;;;;;;;;;;;;;;;14.19;58.77;96082.03;5012341;28;19953;-84
2022/11/01 08:55:37;;;;;;;;;;;;;;;14.25;58.62;96075.63;5028876;28;19913;-82
2022/11/01 08:58:02;;;;;;;;;;;;;;;14.27;58.55;96075.31;5040716;28;19928;-82
2022/11/01 09:00:27;;;;;;;;;;;;;;;14.39;58.69;96067.03;5024788;28;19917;-81
2022/11/01 09:02:53;;;;;;;;;;;;;;;14.35;58.23;96065.94;5014897;28;19918;-81
2022/11/01 09:05:18;;;;;;;;;;;;;;;14.43;58.51;96065.38;5023538;28;19944;-82
2022/11/01 09:07:43;;;;;;;;;;;;;;;14.49;58.18;96062.44;5021800;28;19925;-81
2022/11/01 09:10:09;;;;;;;;;;;;;;;14.63;57.96;96062.63;5014122;28;19928;-83
2022/11/01 09:12:35;;;;;;;;;;;;;;;14.71;57.18;96058.56;5020267;28;19988;-82
2022/11/01 09:15:00;;;;;;;;;;;;;;;14.80;57.47;96055.00;5020221;28;20155;-82
2022/11/01 09:17:25;;;;;;;;;;;;;;;14.86;57.25;96055.78;5508940;23;19972;-75
2022/11/01 09:19:51;;;;;;;;;;;;;;;14.88;57.06;96051.75;5003800;28;19922;-75
2022/11/01 09:22:16;;;;;;;;;;;;;;;14.98;56.45;96049.00;5022148;28;20490;-77
2022/11/01 09:24:41;;;;;;;;;;;;;;;15.03;56.40;96056.97;4999479;28;19917;-77
2022/11/01 09:27:10;;;;;;;;;;;;;;;15.06;56.09;96056.41;4996742;28;20335;-77
2022/11/01 09:29:35;;;;;;;;;;;;;;;15.16;56.09;96046.72;5016244;28;19978;-76
2022/11/01 09:32:02;;;;;;;;;;;;;;;15.28;56.53;96047.13;5038751;22;20024;-89
2022/11/01 09:34:27;;;;;;;;;;;;;;;15.33;56.19;96036.41;5010793;28;19924;-85
2022/11/01 09:36:53;;;;;;;;;;;;;;;15.39;56.01;96029.94;5000406;28;19921;-85
2022/11/01 09:39:20;;;;;;;;;;;;;;;15.48;56.09;96038.94;4999286;28;19923;-86
2022/11/01 09:41:56;;;;;;;;;;;;;;;15.55;55.47;96035.94;4981057;28;19948;-85
2022/11/01 09:44:26;;;;;;;;;;;;;;;15.61;54.81;96030.25;5016623;28;19917;-85
2022/11/01 09:46:54;;;;;;;;;;;;;;;15.56;55.06;96026.84;5019805;28;20023;-86
2022/11/01 09:49:25;;;;;;;;;;;;;;;15.63;54.83;96027.31;5016284;28;19922;-85
2022/11/01 09:51:51;;;;;;;;;;;;;;;15.83;54.71;96013.69;5011379;28;19944;-85
2022/11/01 09:54:18;;;;;;;;;;;;;;;16.66;52.92;96015.78;5000026;28;19918;-85
2022/11/01 09:57:00;;;;;;;;;;;;;;;17.75;50.32;96012.59;4991182;28;19925;-86
2022/11/01 09:59:25;;;;;;;;;;;;;;;19.02;46.94;96001.75;5001959;28;19940;-86
2022/11/01 10:01:53;;;;;;;;;;;;;;;20.01;44.52;96010.13;5034662;28;19917;-86
2022/11/01 10:04:19;;;;;;;;;;;;;;;21.09;42.15;96003.88;5006409;28;20063;-86
2022/11/01 10:07:13;;;;;;;;;;;;;;;21.98;39.82;96002.19;5024288;28;19917;-86
2022/11/01 10:09:46;;;;;;;;;;;;;;;22.61;38.39;95994.97;4999239;28;19917;-86
2022/11/01 10:12:28;;;;;;;;;;;;;;;23.02;37.27;95996.88;5022612;28;19917;-87
2022/11/01 10:15:12;;;;;;;;;;;;;;;23.39;36.56;95995.84;5015613;28;20007;-85
2022/11/01 10:17:48;;;;;;;;;;;;;;;23.50;36.08;95988.09;5038442;28;20019;-86
2022/11/01 10:20:14;;;;;;;;;;;;;;;23.74;35.55;95984.63;5019859;28;20016;-85
2022/11/01 10:22:41;;;;;;;;;;;;;;;23.37;36.40;95984.56;5020760;28;20352;-85
2022/11/01 10:25:07;;;;;;;;;;;;;;;23.36;36.31;95982.19;4999405;28;19929;-85
2022/11/01 10:27:48;;;;;;;;;;;;;;;23.08;36.62;95979.31;5006732;28;19996;-86
2022/11/01 10:30:15;;;;;;;;;;;;;;;22.69;37.65;95972.47;5032109;28;19964;-86
2022/11/01 10:33:00;;;;;;;;;;;;;;;22.75;36.96;95973.09;5014464;28;19921;-86
2022/11/01 10:35:38;;;;;;;;;;;;;;;22.38;37.76;95963.97;5002739;28;19917;-86
2022/11/01 10:38:15;;;;;;;;;;;;;;;22.17;38.53;95966.66;5001606;28;19917;-86
2022/11/01 10:40:45;;;;;;;;;;;;;;;22.38;38.00;95966.66;5003609;28;19977;-86
2022/11/01 10:43:15;;;;;;;;;;;;;;;22.40;38.11;95959.84;5003235;28;20303;-86
2022/11/01 10:45:42;;;;;;;;;;;;;;;22.43;38.47;95955.69;5029161;28;19925;-86
2022/11/01 10:48:14;;;;;;;;;;;;;;;22.22;38.52;95959.16;4991343;28;19990;-85
2022/11/01 10:50:40;;;;;;;;;;;;;;;21.97;38.63;95962.78;4995621;28;19924;-85
2022/11/01 10:53:07;;;;;;;;;;;;;;;21.91;39.28;95950.56;4996328;28;19956;-86
2022/11/01 10:55:38;;;;;;;;;;;;;;;21.89;38.63;95944.72;5022285;28;20334;-86
2022/11/01 10:58:22;;;;;;;;;;;;;;;21.99;38.45;95944.38;5004736;28;19918;-85
2022/11/01 11:00:47;;;;;;;;;;;;;;;21.86;39.10;95935.38;5032424;28;20315;-86
2022/11/01 11:03:22;;;;;;;;;;;;;;;22.16;39.01;95933.47;5038602;28;19932;-85
2022/11/01 11:05:48;;;;;;;;;;;;;;;22.34;38.80;95928.72;5025495;28;19972;-86
2022/11/01 11:08:16;;;;;;;;;;;;;;;21.86;37.85;95859.75;5036466;28;19921;-85
2022/11/01 11:10:41;;;;;;;;;;;;;;;22.48;37.87;95925.75;5003142;28;20060;-85
2022/11/01 11:13:08;;;;;;;;;;;;;;;22.62;37.45;95923.56;4986526;28;19961;-85
2022/11/01 11:15:53;;;;;;;;;;;;;;;22.91;37.30;95931.56;5018346;28;19917;-85
2022/11/01 11:18:26;;;;;;;;;;;;;;;23.03;37.63;95923.50;5001553;28;20311;-85
2022/11/01 11:20:57;;;;;;;;;;;;;;;23.15;37.12;95922.72;5006166;28;19906;-84
2022/11/01 11:23:25;;;;;;;;;;;;;;;23.10;36.80;95912.13;5001311;28;19928;-85
2022/11/01 11:25:50;;;;;;;;;;;;;;;23.35;36.38;95915.66;5019393;28;19917;-85
2022/11/01 11:28:25;;;;;;;;;;;;;;;23.52;35.53;95911.97;5004934;28;19992;-85
2022/11/01 11:30:50;;;;;;;;;;;;;;;23.59;35.51;95914.91;4992304;28;19917;-85
2022/11/01 11:33:17;;;;;;;;;;;;;;;23.68;35.06;95907.47;5012128;28;19928;-85
2022/11/01 11:35:51;;;;;;;;;;;;;;;23.84;34.91;95917.28;5036306;28;20011;-85
2022/11/01 11:38:16;;;;;;;;;;;;;;;23.90;34.42;95907.00;5010411;28;19937;-86
2022/11/01 11:40:43;;;;;;;;;;;;;;;24.19;34.38;95905.91;5017024;28;19967;-86
2022/11/01 11:43:34;;;;;;;;;;;;;;;24.22;34.52;95900.66;5010748;28;19921;-86
2022/11/01 11:46:12;;;;;;;;;;;;;;;24.18;33.69;95901.66;5017513;28;19926;-86
2022/11/01 11:48:48;;;;;;;;;;;;;;;24.49;33.31;95899.06;5014985;28;19921;-85
2022/11/01 11:51:13;;;;;;;;;;;;;;;24.26;33.34;95895.31;5020816;28;20307;-86
2022/11/01 11:53:39;;;;;;;;;;;;;;;24.33;33.69;95892.03;5018201;28;19921;-85
2022/11/01 11:56:06;;;;;;;;;;;;;;;24.35;32.78;95889.75;5018575;28;19972;-86
2022/11/01 11:58:34;;;;;;;;;;;;;;;24.44;33.09;95885.00;5016187;28;20020;-86
2022/11/01 12:00:59;;;;;;;;;;;;;;;24.75;32.82;95887.00;5018133;28;19917;-86
2022/11/01 12:03:25;;;;;;;;;;;;;;;24.71;32.60;95884.22;5046744;28;19984;-86
2022/11/01 12:05:52;;;;;;;;;;;;;;;24.94;32.48;95881.75;5017285;28;19905;-86
2022/11/01 12:08:28;;;;;;;;;;;;;;;25.11;32.12;95872.47;5016942;28;19921;-85
2022/11/01 12:10:57;;;;;;;;;;;;;;;25.22;31.87;95870.81;5042239;28;19998;-85
2022/11/01 12:13:22;;;;;;;;;;;;;;;25.02;32.26;95867.22;5018819;28;19917;-86
2022/11/01 12:15:48;;;;;;;;;;;;;;;24.90;31.79;95867.25;5017387;28;19924;-85
2022/11/01 12:18:14;;;;;;;;;;;;;;;24.99;31.73;95862.47;5009053;28;19921;-86
2022/11/01 12:20:40;;;;;;;;;;;;;;;24.67;31.70;95803.88;5017870;28;19918;-86
2022/11/01 12:23:15;;;;;;;;;;;;;;;25.25;31.54;95862.75;5020073;28;19918;-85
2022/11/01 12:25:42;;;;;;;;;;;;;;;25.35;30.87;95861.44;5016541;28;19917;-86
2022/11/01 12:28:14;;;;;;;;;;;;;;;25.45;30.96;95850.06;5009548;28;20391;-86
2022/11/01 12:30:40;;;;;;;;;;;;;;;25.60;30.92;95846.56;5019171;28;19917;-86
2022/11/01 12:33:22;;;;;;;;;;;;;;;25.71;30.93;95844.06;5030473;28;20365;-84
2022/11/01 12:35:51;;;;;;;;;;;;;;;25.79;30.79;95851.22;5026584;28;19921;-84
2022/11/01 12:38:25;;;;;;;;;;;;;;;25.66;31.06;95845.13;5021954;28;19917;-84
2022/11/01 12:40:51;;;;;;;;;;;;;;;25.42;31.06;95842.59;5038394;28;19971;-82
2022/11/01 12:43:26;;;;;;;;;;;;;;;25.50;30.78;95846.28;5032236;28;20062;-83
2022/11/01 12:45:54;;;;;;;;;;;;;;;25.55;31.08;95841.38;5013601;28;19924;-83
2022/11/01 12:48:31;;;;;;;;;;;;;;;25.59;30.95;95839.53;5014917;28;20351;-85
2022/11/01 12:51:32;;;;;;;;;;;;;;;25.52;30.88;95835.84;4997128;28;19924;-84
2022/11/01 12:54:04;;;;;;;;;;;;;;;25.41;30.62;95837.50;4975734;28;19991;-84
2022/11/01 12:56:30;;;;;;;;;;;;;;;25.14;31.09;95837.28;5024025;28;19917;-83
2022/11/01 12:58:55;;;;;;;;;;;;;;;25.07;31.30;95839.03;5017305;28;20012;-84